Latest Coastal Weather Observations for Cape Borda

IDT60701

Issued at 8:32 am EST Tuesday 30 May 2017 (issued every 10 minutes, with the page automatically refreshed every 10 minutes)

About coastal observations | Map of coastal stations | Coastal observations for TAS | Marine services | Other Formats
Station Details ID: 022823 Name: CAPE BORDA Lat: -35.75 Lon: 136.60 Height: 158.0 m
Data from the previous 72 hours. | See also: Recent months at Cape Borda
Date/Time
EST
Temp
°C
Wind Pressure Rain since
9am
mm
Weather Cloud Vis
km
Sea
Height
m
Swell
Dir  Spd
kts
Gust
kts
hPa Trend Height
m
Period
s
Dir
30/08:30am 10.5 S 10 14 1028.3 - 2.6 - - - - - - -
30/08:00am 9.8 S 8 11 1028.0 - 2.6 - - - - - - -
30/07:30am 9.9 S 8 11 1027.5 - 2.6 - - - - - - -
30/07:00am 9.8 S 9 13 1026.9 - 2.6 - - - - - - -
30/06:30am 10.7 S 12 20 1026.3 - 2.6 - - - - - - -
30/06:00am 10.7 S 13 20 1025.6 - 2.6 - - - - - - -
30/05:30am 10.4 S 11 15 1025.3 - 2.6 - - - - - - -
30/05:00am 10.9 S 14 19 1025.0 - 2.6 - - - - - - -
30/04:30am 11.3 S 15 22 1024.8 - 2.6 - - - - - - -
30/04:00am 11.7 S 14 21 1024.6 - 2.6 - - - - - - -
30/03:30am 11.3 S 14 20 1024.4 - 2.6 - - - - - - -
30/03:00am 11.2 S 13 18 1024.0 - 2.6 - - - - - - -
30/02:30am 11.7 S 14 19 1023.7 - 2.6 - - - - - - -
30/02:00am 11.8 S 16 23 1023.4 - 2.6 - - - - - - -
30/01:30am 11.8 SSW 16 22 1023.4 - 2.6 - - - - - - -
30/01:00am 11.5 S 17 24 1023.4 - 2.6 - - - - - - -
30/12:30am 11.8 SSW 17 27 1023.2 - 2.4 - - - - - - -
30/12:20am 12.3 SSW 16 27 1023.2 - 2.0 - - - - - - -
30/12:00am 12.2 SSW 16 23 1023.0 - 2.0 - - - - - - -
 
Date/Time
EST
Temp
°C
Wind Pressure Rain since
9am
mm
Weather Cloud Vis
km
Sea
Height
m
Swell
Dir  Spd
kts
Gust
kts
hPa Trend Height
m
Period
s
Dir
29/11:30pm 11.7 S 16 25 1022.7 - 2.0 - - - - - - -
29/11:12pm 13.7 SW 15 28 1022.5 - 1.6 - - - - - - -
29/11:00pm 13.8 WSW 13 19 1022.5 - 1.6 - - - - - - -
29/10:30pm 13.8 WSW 15 22 1022.5 - 1.6 - - - - - - -
29/10:00pm 13.8 WSW 14 19 1022.2 - 1.6 - - - - - - -
29/09:30pm 13.2 WSW 14 20 1022.2 - 1.6 - - - - - - -
29/09:00pm 13.1 WSW 19 24 1022.0 - 1.6 - - - - - - -
29/08:54pm 12.9 WSW 18 24 1022.0 - 1.6 - - - - - - -
29/08:30pm 13.0 WSW 10 14 1021.9 - 1.6 - - - - - - -
29/08:00pm 12.2 WSW 11 16 1021.9 - 1.4 - - - - - - -
29/07:30pm 12.7 SW 16 26 1021.8 - 1.0 - - - - - - -
29/07:04pm 11.9 WSW 15 25 1021.5 - 1.0 - - - - - - -
29/07:00pm 11.8 WSW 17 25 1021.6 - 1.0 - - - - - - -
29/06:43pm 13.2 W 17 27 1021.3 - 0.6 - - - - - - -
29/06:30pm 12.5 W 13 19 1021.0 - 0.6 - - - - - - -
29/06:00pm 12.6 W 19 29 1021.1 - 0.4 - - - - - - -
29/05:34pm 14.0 W 15 25 1020.5 - 0.2 - - - - - - -
29/05:30pm 14.0 W 14 21 1020.4 - 0.2 - - - - - - -
29/05:00pm 14.0 W 14 20 1020.4 - 0.2 - - - - - - -
29/04:30pm 14.6 W 12 17 1020.3 - 0.2 - - - - - - -
29/04:00pm 14.7 W 12 17 1020.2 - 0.2 - - - - - - -
29/03:30pm 15.0 W 13 18 1020.1 R 0.2 Fine Partly cloudy 20 1 5.0 8 SW
29/03:00pm 15.6 W 13 17 1020.0 - 0.2 - - - - - - -
29/02:30pm 15.5 W 13 17 1020.1 - 0.0 - - - - - - -
29/02:00pm 15.5 W 13 18 1020.1 - 0.0 - - - - - - -
29/01:30pm 15.2 W 14 19 1020.3 - 0.0 - - - - - - -
29/01:00pm 14.5 W 13 18 1020.6 - 0.0 - - - - - - -
29/12:30pm 14.2 W 13 19 1020.9 - 0.0 - - - - - - -
29/12:00pm 14.3 W 11 17 1021.2 - 0.0 - - - - - - -
29/11:30am 14.3 W 13 17 1021.4 - 0.0 - - - - - - -
29/11:00am 13.9 W 13 16 1021.4 - 0.0 - - - - - - -
29/10:30am 13.2 W 11 16 1021.2 - 0.0 - - - - - - -
29/10:00am 12.5 W 9 13 1021.2 - 0.0 - - - - - - -
29/09:30am 11.7 WSW 11 20 1020.9 S 2.0 Distant precip. Partly cloudy 18 1 5.2 7 SW
29/09:00am 12.7 W 9 13 1020.8 - 1.8 - - - - - - -
29/08:30am 12.4 W 7 11 1020.5 - 1.8 - - - - - - -
29/08:00am 12.1 W 7 11 1020.2 - 1.8 - - - - - - -
29/07:30am 11.7 W 9 12 1020.0 - 1.8 - - - - - - -
29/07:00am 11.8 W 6 8 1019.9 - 1.8 - - - - - - -
29/06:30am 12.2 W 7 11 1019.7 - 0.4 - - - - - - -
29/06:00am 12.0 SW 5 7 1019.4 - 0.4 - - - - - - -
29/05:30am 12.1 W 8 12 1019.4 - 0.4 - - - - - - -
29/05:00am 12.1 WSW 9 12 1019.3 - 0.4 - - - - - - -
29/04:30am 11.5 WSW 7 9 1019.5 - 0.4 - - - - - - -
29/04:00am 11.8 W 10 15 1019.6 - 0.4 - - - - - - -
29/03:30am 11.7 WSW 8 11 1019.5 - 0.4 - - - - - - -
29/03:00am 11.4 WSW 7 9 1019.5 - 0.4 - - - - - - -
29/02:30am 11.3 WSW 8 12 1019.5 - 0.4 - - - - - - -
29/02:00am 11.2 WSW 7 10 1019.4 - 0.4 - - - - - - -
29/01:30am 11.5 SW 9 14 1019.5 - 0.4 - - - - - - -
29/01:00am 11.6 WSW 9 13 1019.5 - 0.4 - - - - - - -
29/12:30am 11.6 WSW 11 17 1019.6 - 0.2 - - - - - - -
29/12:00am 11.0 SW 9 13 1019.6 - 0.2 - - - - - - -
 
Date/Time
EST
Temp
°C
Wind Pressure Rain since
9am
mm
Weather Cloud Vis
km
Sea
Height
m
Swell
Dir  Spd
kts
Gust
kts
hPa Trend Height
m
Period
s
Dir
28/11:30pm 11.9 WSW 12 16 1019.5 - 0.2 - - - - - - -
28/11:00pm 11.9 SW 9 13 1019.5 - 0.2 - - - - - - -
28/10:30pm 11.1 SW 9 13 1019.6 - 0.2 - - - - - - -
28/10:00pm 11.3 SW 11 17 1019.5 - 0.2 - - - - - - -
28/09:30pm 11.7 SW 11 16 1019.5 - 0.0 - - - - - - -
28/09:00pm 12.1 SW 12 16 1019.1 - 0.0 - - - - - - -
28/08:30pm 11.3 SW 10 15 1018.9 - 0.0 - - - - - - -
28/08:00pm 11.4 SW 14 23 1018.6 - 0.0 - - - - - - -
28/07:30pm 12.2 SSW 14 21 1018.3 - 0.0 - - - - - - -
28/07:00pm 12.3 SW 13 20 1017.9 - 0.0 - - - - - - -
28/06:30pm 11.7 SSW 13 19 1017.6 - 0.0 - - - - - - -
28/06:00pm 11.9 SSW 16 23 1017.3 - 0.0 - - - - - - -
28/05:30pm 12.1 SSW 17 23 1017.0 - 0.0 - - - - - - -
28/05:10pm 12.4 SW 16 26 1016.8 - 0.0 - - - - - - -
28/05:00pm 12.3 SW 18 25 1016.7 - 0.0 - - - - - - -
28/04:30pm 12.5 SW 17 23 1016.4 - 0.0 - - - - - - -
28/04:14pm 12.5 SSW 17 27 1016.3 - 0.0 - - - - - - -
28/04:00pm 13.2 SSW 17 25 1016.2 - 0.0 - - - - - - -
28/03:32pm 13.2 SW 19 29 1015.8 - 0.0 - - - - - - -
28/03:30pm 13.3 SW 19 27 1015.6 R 0.0 Fine Partly cloudy 15 3 8.0 8 SW
28/03:00pm 14.1 SW 17 29 1015.6 - 0.0 - - - - - - -
28/02:53pm 13.9 SW 18 28 1015.6 - 0.0 - - - - - - -
28/02:30pm 14.1 SW 20 28 1015.4 - 0.0 - - - - - - -
28/02:00pm 14.3 SW 19 26 1015.2 - 0.0 - - - - - - -
28/01:30pm 13.8 SW 18 26 1015.3 - 0.0 - - - - - - -
28/01:00pm 13.6 SW 20 29 1015.3 - 0.0 - - - - - - -
28/12:30pm 13.7 SW 19 26 1015.3 - 0.0 - - - - - - -
28/12:07pm 12.8 SW 17 28 1015.4 - 0.0 - - - - - - -
28/12:00pm 12.5 SW 15 21 1015.5 - 0.0 - - - - - - -
28/11:39am 12.6 SW 17 27 1015.5 - 0.0 - - - - - - -
28/11:30am 13.1 SW 19 25 1015.5 - 0.0 - - - - - - -
28/11:02am 12.1 SW 18 32 1015.3 - 0.0 - - - - - - -
28/11:00am 12.1 SW 18 27 1015.3 - 0.0 - - - - - - -
28/10:32am 13.1 SW 16 27 1015.1 - 0.0 - - - - - - -
28/10:30am 13.0 SW 16 25 1015.1 - 0.0 - - - - - - -
28/10:25am 12.9 SW 15 25 1015.0 - 0.0 - - - - - - -
28/10:00am 11.5 SW 16 24 1014.8 - 0.0 - - - - - - -
28/09:30am 10.6 SW 15 22 1014.5 R 4.2 Fine Mostly cloudy 10 3 6.5 6 SW
28/09:00am 11.8 SW 17 24 1014.0 - 3.4 - - - - - - -
28/08:37am 10.8 SW 18 28 1013.7 - 3.4 - - - - - - -
28/08:30am 10.7 SW 17 25 1013.7 - 3.4 - - - - - - -
28/08:00am 10.6 SW 17 24 1013.6 - 3.2 - - - - - - -
28/07:30am 10.0 SW 20 33 1013.4 - 3.2 - - - - - - -
28/07:07am 11.4 WSW 17 28 1013.1 - 3.0 - - - - - - -
28/07:00am 10.9 WSW 19 28 1013.1 - 3.0 - - - - - - -
28/06:50am 10.9 SW 20 30 1013.0 - 3.0 - - - - - - -
28/06:30am 12.1 WSW 21 30 1012.7 - 3.0 - - - - - - -
28/06:00am 12.1 WSW 19 28 1012.7 - 2.8 - - - - - - -
28/05:37am 11.5 WSW 16 26 1012.7 - 2.8 - - - - - - -
28/05:30am 11.1 WSW 14 20 1012.7 - 2.8 - - - - - - -
28/05:02am 11.6 SW 17 31 1012.6 - 2.8 - - - - - - -
28/05:00am 11.9 SW 17 24 1012.7 - 2.8 - - - - - - -
28/04:34am 12.5 WSW 15 25 1012.5 - 2.8 - - - - - - -
28/04:30am 12.3 SW 15 22 1012.6 - 2.8 - - - - - - -
28/04:00am 12.3 WSW 17 24 1012.7 - 2.8 - - - - - - -
28/03:40am 12.3 SW 17 27 1012.7 - 2.8 - - - - - - -
28/03:30am 12.3 WSW 17 25 1012.7 - 2.8 - - - - - - -
28/03:00am 12.3 WSW 17 22 1012.8 - 2.8 - - - - - - -
28/02:30am 12.0 WSW 16 24 1012.9 - 2.8 - - - - - - -
28/02:00am 11.7 SW 16 23 1012.9 - 2.8 - - - - - - -
28/01:30am 12.2 SW 16 23 1013.0 - 2.8 - - - - - - -
28/01:00am 11.7 WSW 17 25 1013.2 - 2.8 - - - - - - -
28/12:52am 11.7 WSW 19 29 1013.1 - 2.8 - - - - - - -
28/12:47am 11.9 WSW 22 29 1013.1 - 2.8 - - - - - - -
28/12:37am 11.6 SW 17 27 1013.1 - 2.8 - - - - - - -
28/12:30am 11.5 SW 19 27 1013.0 - 2.8 - - - - - - -
28/12:26am 11.8 SW 21 27 1013.0 - 2.8 - - - - - - -
28/12:00am 11.5 WSW 17 21 1013.0 - 2.8 - - - - - - -
 
Date/Time
EST
Temp
°C
Wind Pressure Rain since
9am
mm
Weather Cloud Vis
km
Sea
Height
m
Swell
Dir  Spd
kts
Gust
kts
hPa Trend Height
m
Period
s
Dir
27/11:30pm 11.6 SW 18 26 1013.0 - 2.8 - - - - - - -
27/11:00pm 12.0 SW 18 24 1012.9 - 2.8 - - - - - - -
27/10:50pm 11.9 SW 17 27 1012.9 - 2.8 - - - - - - -
27/10:30pm 11.9 WSW 17 23 1012.9 - 2.8 - - - - - - -
27/10:00pm 11.4 WSW 17 27 1012.8 - 2.8 - - - - - - -
27/09:40pm 11.6 WSW 15 27 1012.7 - 2.8 - - - - - - -
27/09:30pm 11.5 SW 15 22 1012.6 - 2.8 - - - - - - -
27/09:18pm 11.5 SW 15 26 1012.5 - 2.8 - - - - - - -
27/09:00pm 11.1 WSW 16 24 1012.3 - 2.8 - - - - - - -
27/08:30pm 11.1 SW 15 22 1012.2 - 2.0 - - - - - - -
27/08:00pm 11.2 SW 19 26 1012.1 - 2.0 - - - - - - -
27/07:30pm 11.4 SW 20 28 1011.6 - 2.0 - - - - - - -
27/07:27pm 11.4 SW 20 28 1011.5 - 2.0 - - - - - - -
27/07:00pm 12.3 WSW 16 24 1011.1 - 1.8 - - - - - - -
27/06:30pm 11.9 SW 14 19 1010.9 - 1.8 - - - - - - -
27/06:00pm 11.6 WSW 10 14 1010.8 - 1.8 - - - - - - -
27/05:30pm 11.8 WSW 16 24 1010.6 - 1.4 - - - - - - -
27/05:00pm 12.0 SW 16 22 1010.3 - 1.0 - - - - - - -
27/04:30pm 12.8 SW 17 24 1010.2 - 0.8 - - - - - - -
27/04:02pm 12.9 SW 20 30 1009.7 - 0.8 - - - - - - -
27/04:00pm 12.9 SW 21 30 1009.6 - 0.8 - - - - - - -
27/03:50pm 13.3 SW 21 27 1009.6 - 0.8 - - - - - - -
27/03:33pm 14.6 WSW 17 27 1009.4 - 0.8 - - - - - - -
27/03:30pm 15.0 WSW 17 26 1009.4 S 0.8 Fine Mostly cloudy 10 2 5.0 7 SW
27/03:00pm 14.8 W 15 23 1009.3 - 0.8 - - - - - - -
27/02:30pm 15.0 W 15 22 1009.6 - 0.8 - - - - - - -
27/02:00pm 15.1 W 17 24 1009.8 - 0.8 - - - - - - -
27/01:30pm 15.2 W 16 23 1010.0 - 0.8 - - - - - - -
27/01:00pm 14.9 WSW 14 20 1010.3 - 0.8 - - - - - - -
27/12:30pm 15.1 W 13 19 1010.5 - 0.8 - - - - - - -
27/12:00pm 15.1 W 13 19 1011.0 - 0.8 - - - - - - -
27/11:30am 15.4 W 15 19 1011.2 - 0.4 - - - - - - -
27/11:00am 15.7 W 14 19 1011.4 - 0.4 - - - - - - -
27/10:30am 15.1 WNW 16 22 1011.3 - 0.4 - - - - - - -
27/10:00am 16.5 NW 15 21 1011.2 - 0.0 - - - - - - -
27/09:30am 16.7 NW 14 19 1011.5 F 0.2 Fine Mostly cloudy 10 2 4.2 7 SW

Other Formats:

Comma delimited format used in spreadsheet applications
http://www.bom.gov.au/fwo/IDT60701/IDT60701.95805.axf

JavaScript Object Notation format (JSON) in row-major order
http://www.bom.gov.au/fwo/IDT60701/IDT60701.95805.json